Hlavní strana
METAR-TAF:

METAR-TAF

Letiště :

Pikeville, Kentucky, Spojené státy americké

zeměpisná šířka: 37-33-42N, zeměpisná délka: 082-33-59W, výška: 449 m

Aktuální stav počasí

Zpráva byla vytvořena před 23 minutami, v 05:35 UTC
Východní vítr 3 kt
Teplota -3°C
Vlhkost vzduchu 50%
Tlak 1024 hPa
Viditelnost: 16.1 km
Polojasno ve výšce 12000 ft

METAR: KPBX 240535Z AUTO 08003KT 10SM SCT120 M03/M12 A3025 RMK AO2 T10261116

Čas: 00:58 (05:58 UTC)


TAF: chybějící

Stav a předpovědi počasí z více než 4 000 letišť (zprávy METAR a TAF).

Červené a žluté tečky na mapě představují dostupné meteorologické stanice.

Když kurzor umístíte na tečku, zobrazí se název stanice.

Pak kliknutím zobrazíte stav a předpověď počasí.

Chcete-li změnit mapu, kliknutím na zelené tlačítko se znaménkem +mapu přiblížíte, kliknutím na zelené tlačítko se znaménkem – mapu oddálíte a kliknutím na zelené šipky přejdete na sousední mapy.


METAR-TAF: